Flight Track Log - Related Links

Times and Time Zones

All times are in EDT time to prevent confusion due to time zone crossing. See the DAL110 flight status page for this flight to view local times or setup timezone preferences in your user account.

Time Position Orientation Groundspeed Altitude Reporting Facility
EDT Latitude Longitude Course Direction KTS MPH feet Rate Location/Type
Fri 07:37:00 PM -34.7104 -58.5817 339° North  Level FlightAware Approximate
Fri 07:38:00 PM -34.5973 -58.6344 339° North  Level FlightAware Approximate
Fri 07:39:00 PM -34.4842 -58.6869 339° North  Level FlightAware Approximate
Fri 07:40:00 PM -34.3711 -58.7394 339° North  Level FlightAware Approximate
Fri 07:41:00 PM -34.2574 -58.7919 339° North  Level FlightAware Approximate
Fri 07:42:00 PM -34.1437 -58.8443 339° North  Level FlightAware Approximate
Fri 07:43:00 PM -34.0299 -58.8966 339° North  Level FlightAware Approximate
Fri 07:44:00 PM -33.9162 -58.9487 339° North  Level FlightAware Approximate
Fri 07:45:00 PM -33.8024 -59.0007 339° North  Level FlightAware Approximate
Fri 07:46:00 PM -33.6885 -59.0526 339° North  Level FlightAware Approximate
Fri 07:47:00 PM -33.5747 -59.1043 339° North  Level FlightAware Approximate
Fri 07:48:00 PM -33.4608 -59.1558 339° North  Level FlightAware Approximate
Fri 07:49:00 PM -33.3445 -59.2087 339° North  Level FlightAware Approximate
Fri 07:50:00 PM -33.2308 -59.2606 339° North  Level FlightAware Approximate
Fri 07:51:00 PM -33.1171 -59.3124 339° North  Level FlightAware Approximate
Fri 07:52:00 PM -33.0033 -59.3640 339° North  Level FlightAware Approximate
Fri 07:53:00 PM -32.8895 -59.4155 339° North  Level FlightAware Approximate
Fri 07:54:00 PM -32.7757 -59.4668 339° North  Level FlightAware Approximate
Fri 07:55:00 PM -32.6619 -59.5181 339° North  Level FlightAware Approximate
Fri 07:56:00 PM -32.5481 -59.5692 339° North  Level FlightAware Approximate
Fri 07:57:00 PM -32.4342 -59.6201 339° North  Level FlightAware Approximate
Fri 07:58:00 PM -32.3203 -59.6710 339° North  Level FlightAware Approximate
Fri 07:59:00 PM -32.2064 -59.7217 339° North  Level FlightAware Approximate
Fri 08:00:00 PM -32.0925 -59.7723 339° North  Level FlightAware Approximate
Fri 08:01:00 PM -31.9786 -59.8227 339° North  Level FlightAware Approximate
Fri 08:02:00 PM -31.8646 -59.8731 339° North  Level FlightAware Approximate
Fri 08:03:00 PM -31.7506 -59.9233 339° North  Level FlightAware Approximate
Fri 08:04:00 PM -31.6366 -59.9734 339° North  Level FlightAware Approximate
Fri 08:05:00 PM -31.5226 -60.0233 340° North  Level FlightAware Approximate
Fri 08:06:00 PM -31.4086 -60.0732 340° North  Level FlightAware Approximate
Fri 08:07:00 PM -31.2945 -60.1229 340° North  Level FlightAware Approximate
Fri 08:08:00 PM -31.1804 -60.1725 340° North  Level FlightAware Approximate
Fri 08:09:00 PM -31.0663 -60.2220 340° North  Level FlightAware Approximate
Fri 08:10:00 PM -30.9522 -60.2713 340° North  Level FlightAware Approximate
Fri 08:11:00 PM -30.8381 -60.3206 340° North  Level FlightAware Approximate
Fri 08:12:00 PM -30.7239 -60.3697 340° North  Level FlightAware Approximate
Fri 08:13:00 PM -30.6097 -60.4187 340° North  Level FlightAware Approximate
Fri 08:14:00 PM -30.4956 -60.4676 340° North  Level FlightAware Approximate
Fri 08:15:00 PM -30.3813 -60.5164 340° North  Level FlightAware Approximate
Fri 08:16:00 PM -30.2671 -60.5650 340° North  Level FlightAware Approximate
Fri 08:17:00 PM -30.1529 -60.6136 340° North  Level FlightAware Approximate
Fri 08:18:00 PM -30.0386 -60.6620 340° North  Level FlightAware Approximate
Fri 08:19:00 PM -29.9243 -60.7104 340° North  Level FlightAware Approximate
Fri 08:20:00 PM -29.8100 -60.7586 340° North  Level FlightAware Approximate
Fri 08:21:00 PM -29.6957 -60.8067 340° North  Level FlightAware Approximate
Fri 08:22:00 PM -29.5814 -60.8547 340° North  Level FlightAware Approximate
Fri 08:23:00 PM -29.4670 -60.9026 340° North  Level FlightAware Approximate
Fri 08:24:00 PM -29.3526 -60.9504 340° North  Level FlightAware Approximate
Fri 08:25:00 PM -29.2383 -60.9981 340° North  Level FlightAware Approximate
Fri 08:26:00 PM -29.1239 -61.0456 340° North  Level FlightAware Approximate
Fri 08:27:00 PM -29.0095 -61.0931 340° North  Level FlightAware Approximate
Fri 08:28:00 PM -28.8950 -61.1404 340° North  Level FlightAware Approximate
Fri 08:29:00 PM -28.7806 -61.1877 340° North  Level FlightAware Approximate
Fri 08:30:00 PM -28.6661 -61.2348 340° North  Level FlightAware Approximate
Fri 08:31:00 PM -28.5516 -61.2819 340° North  Level FlightAware Approximate
Fri 08:32:00 PM -28.4371 -61.3288 340° North  Level FlightAware Approximate
Fri 08:33:00 PM -28.3226 -61.3757 340° North  Level FlightAware Approximate
Fri 08:34:00 PM -28.2081 -61.4224 340° North  Level FlightAware Approximate
Fri 08:35:00 PM -28.0935 -61.4691 340° North  Level FlightAware Approximate
Fri 08:36:00 PM -27.9790 -61.5156 340° North  Level FlightAware Approximate
Fri 08:37:00 PM -27.8644 -61.5620 340° North  Level FlightAware Approximate
Fri 08:38:00 PM -27.7498 -61.6084 340° North  Level FlightAware Approximate
Fri 08:39:00 PM -27.6352 -61.6547 340° North  Level FlightAware Approximate
Fri 08:40:00 PM -27.5205 -61.7008 340° North  Level FlightAware Approximate
Fri 08:41:00 PM -27.4059 -61.7469 340° North  Level FlightAware Approximate
Fri 08:42:00 PM -27.2912 -61.7928 340° North  Level FlightAware Approximate
Fri 08:43:00 PM -27.1766 -61.8387 340° North  Level FlightAware Approximate
Fri 08:44:00 PM -27.0619 -61.8845 340° North  Level FlightAware Approximate
Fri 08:45:00 PM -26.9472 -61.9301 340° North  Level FlightAware Approximate
Fri 08:46:00 PM -26.8325 -61.9757 340° North  Level FlightAware Approximate
Fri 08:47:00 PM -26.7177 -62.0212 340° North  Level FlightAware Approximate
Fri 08:48:00 PM -26.6030 -62.0666 341° North  Level FlightAware Approximate
Fri 08:49:00 PM -26.4882 -62.1119 341° North  Level FlightAware Approximate
Fri 08:50:00 PM -26.3734 -62.1572 341° North  Level FlightAware Approximate
Fri 08:51:00 PM -26.2587 -62.2023 341° North  Level FlightAware Approximate
Fri 08:52:00 PM -26.1439 -62.2473 341° North  Level FlightAware Approximate
Fri 08:53:00 PM -26.0290 -62.2923 341° North  Level FlightAware Approximate
Fri 08:54:00 PM -25.9142 -62.3371 341° North  Level FlightAware Approximate
Fri 08:55:00 PM -25.7994 -62.3819 341° North  Level FlightAware Approximate
Fri 08:56:00 PM -25.6845 -62.4266 341° North  Level FlightAware Approximate
Fri 08:57:00 PM -25.5696 -62.4712 341° North  Level FlightAware Approximate
Fri 08:58:00 PM -25.4548 -62.5157 341° North  Level FlightAware Approximate
Fri 08:59:00 PM -25.3399 -62.5602 341° North  Level FlightAware Approximate
Fri 09:00:00 PM -25.2250 -62.6045 341° North  Level FlightAware Approximate
Fri 09:01:00 PM -25.1100 -62.6488 341° North  Level FlightAware Approximate
Fri 09:02:00 PM -24.9951 -62.6930 341° North  Level FlightAware Approximate
Fri 09:03:00 PM -24.8801 -62.7371 341° North  Level FlightAware Approximate
Fri 09:04:00 PM -24.7652 -62.7811 341° North  Level FlightAware Approximate
Fri 09:05:00 PM -24.6502 -62.8250 341° North  Level FlightAware Approximate
Fri 09:06:00 PM -24.5352 -62.8689 341° North  Level FlightAware Approximate
Fri 09:07:00 PM -24.4202 -62.9127 341° North  Level FlightAware Approximate
Fri 09:08:00 PM -24.3052 -62.9564 341° North  Level FlightAware Approximate
Fri 09:09:00 PM -24.1902 -63.0000 341° North  Level FlightAware Approximate
Fri 09:10:00 PM -24.0751 -63.0435 341° North  Level FlightAware Approximate
Fri 09:11:00 PM -23.9601 -63.0870 341° North  Level FlightAware Approximate
Fri 09:12:00 PM -23.8450 -63.1304 341° North  Level FlightAware Approximate
Fri 09:13:00 PM -23.7299 -63.1737 341° North  Level FlightAware Approximate
Fri 09:14:00 PM -23.6148 -63.2169 341° North  Level FlightAware Approximate
Fri 09:15:00 PM -23.4998 -63.2601 341° North  Level FlightAware Approximate
Fri 09:16:00 PM -23.3846 -63.3032 341° North  Level FlightAware Approximate
Fri 09:17:00 PM -23.2695 -63.3461 341° North  Level FlightAware Approximate
Fri 09:18:00 PM -23.1544 -63.3891 341° North  Level FlightAware Approximate
Fri 09:19:00 PM -23.0392 -63.4319 341° North  Level FlightAware Approximate
Fri 09:20:00 PM -22.9241 -63.4747 341° North  Level FlightAware Approximate
Fri 09:21:00 PM -22.8089 -63.5174 341° North  Level FlightAware Approximate
Fri 09:22:00 PM -22.6937 -63.5601 341° North  Level FlightAware Approximate
Fri 09:23:00 PM -22.5785 -63.6026 341° North  Level FlightAware Approximate
Fri 09:24:00 PM -22.4633 -63.6451 341° North  Level FlightAware Approximate
Fri 09:25:00 PM -22.3481 -63.6876 341° North  Level FlightAware Approximate
Fri 09:26:00 PM -22.2329 -63.7299 341° North  Level FlightAware Approximate
Fri 09:27:00 PM -22.1177 -63.7722 341° North  Level FlightAware Approximate
Fri 09:28:00 PM -22.0024 -63.8144 341° North  Level FlightAware Approximate
Fri 09:29:00 PM -21.8871 -63.8566 341° North  Level FlightAware Approximate
Fri 09:30:00 PM -21.7719 -63.8987 341° North  Level FlightAware Approximate
Fri 09:31:00 PM -21.6566 -63.9407 341° North  Level FlightAware Approximate
Fri 09:32:00 PM -21.5413 -63.9826 341° North  Level FlightAware Approximate
Fri 09:33:00 PM -21.4260 -64.0245 341° North  Level FlightAware Approximate
Fri 09:34:00 PM -21.3107 -64.0663 341° North  Level FlightAware Approximate
Fri 09:35:00 PM -21.1954 -64.1080 341° North  Level FlightAware Approximate
Fri 09:36:00 PM -21.0800 -64.1497 341° North  Level FlightAware Approximate
Fri 09:37:00 PM -20.9647 -64.1914 341° North  Level FlightAware Approximate
Fri 09:38:00 PM -20.8494 -64.2329 341° North  Level FlightAware Approximate
Fri 09:39:00 PM -20.7340 -64.2744 341° North  Level FlightAware Approximate
Fri 09:40:00 PM -20.6186 -64.3158 341° North  Level FlightAware Approximate
Fri 09:41:00 PM -20.5033 -64.3572 341° North  Level FlightAware Approximate
Fri 09:42:00 PM -20.3879 -64.3985 341° North  Level FlightAware Approximate
Fri 09:43:00 PM -20.2725 -64.4397 341° North  Level FlightAware Approximate
Fri 09:44:00 PM -20.1570 -64.4809 341° North  Level FlightAware Approximate
Fri 09:45:00 PM -20.0416 -64.5220 341° North  Level FlightAware Approximate
Fri 09:46:00 PM -19.9262 -64.5631 342° North  Level FlightAware Approximate
Fri 09:47:00 PM -19.8108 -64.6041 342° North  Level FlightAware Approximate
Fri 09:48:00 PM -19.6953 -64.6450 342° North  Level FlightAware Approximate
Fri 09:49:00 PM -19.5798 -64.6859 342° North  Level FlightAware Approximate
Fri 09:50:00 PM -19.4644 -64.7267 342° North  Level FlightAware Approximate
Fri 09:51:00 PM -19.3489 -64.7675 342° North  Level FlightAware Approximate
Fri 09:52:00 PM -19.2334 -64.8082 342° North  Level FlightAware Approximate
Fri 09:53:00 PM -19.1179 -64.8488 342° North  Level FlightAware Approximate
Fri 09:54:00 PM -19.0024 -64.8894 342° North  Level FlightAware Approximate
Fri 09:55:00 PM -18.8869 -64.9299 342° North  Level FlightAware Approximate
Fri 09:56:00 PM -18.7714 -64.9704 342° North  Level FlightAware Approximate
Fri 09:57:00 PM -18.6559 -65.0108 342° North  Level FlightAware Approximate
Fri 09:58:00 PM -18.5403 -65.0512 342° North  Level FlightAware Approximate
Fri 09:59:00 PM -18.4248 -65.0915 342° North  Level FlightAware Approximate
Fri 10:00:00 PM -18.3092 -65.1318 342° North  Level FlightAware Approximate
Fri 10:01:00 PM -18.1937 -65.1720 342° North  Level FlightAware Approximate
Fri 10:02:00 PM -18.0781 -65.2121 342° North  Level FlightAware Approximate
Fri 10:03:00 PM -17.9625 -65.2522 342° North  Level FlightAware Approximate
Fri 10:04:00 PM -17.8469 -65.2923 342° North  Level FlightAware Approximate
Fri 10:05:00 PM -17.7313 -65.3323 342° North  Level FlightAware Approximate
Fri 10:06:00 PM -17.6157 -65.3722 342° North  Level FlightAware Approximate
Fri 10:07:00 PM -17.5001 -65.4121 342° North  Level FlightAware Approximate
Fri 10:08:00 PM -17.3845 -65.4520 342° North  Level FlightAware Approximate
Fri 10:09:00 PM -17.2689 -65.4917 342° North  Level FlightAware Approximate
Fri 10:10:00 PM -17.1532 -65.5315 342° North  Level FlightAware Approximate
Fri 10:11:00 PM -17.0376 -65.5712 342° North  Level FlightAware Approximate
Fri 10:12:00 PM -16.9219 -65.6108 342° North  Level FlightAware Approximate
Fri 10:13:00 PM -16.8063 -65.6504 342° North  Level FlightAware Approximate
Fri 10:14:00 PM -16.6906 -65.6899 342° North  Level FlightAware Approximate
Fri 10:15:00 PM -16.5749 -65.7294 342° North  Level FlightAware Approximate
Fri 10:16:00 PM -16.4593 -65.7689 342° North  Level FlightAware Approximate
Fri 10:17:00 PM -16.3436 -65.8083 342° North  Level FlightAware Approximate
Fri 10:18:00 PM -16.2279 -65.8477 342° North  Level FlightAware Approximate
Fri 10:19:00 PM -16.1122 -65.8870 342° North  Level FlightAware Approximate
Fri 10:20:00 PM -15.9965 -65.9262 342° North  Level FlightAware Approximate
Fri 10:21:00 PM -15.8807 -65.9654 342° North  Level FlightAware Approximate
Fri 10:22:00 PM -15.7650 -66.0046 342° North  Level FlightAware Approximate
Fri 10:23:00 PM -15.6493 -66.0437 342° North  Level FlightAware Approximate
Fri 10:24:00 PM -15.5336 -66.0828 342° North  Level FlightAware Approximate
Fri 10:25:00 PM -15.4178 -66.1219 342° North  Level FlightAware Approximate
Fri 10:26:00 PM -15.3020 -66.1609 342° North  Level FlightAware Approximate
Fri 10:27:00 PM -15.1863 -66.1998 342° North  Level FlightAware Approximate
Fri 10:28:00 PM -15.0705 -66.2387 342° North  Level FlightAware Approximate
Fri 10:29:00 PM -14.9548 -66.2776 342° North  Level FlightAware Approximate
Fri 10:30:00 PM -14.8390 -66.3164 342° North  Level FlightAware Approximate
Fri 10:31:00 PM -14.7232 -66.3552 342° North  Level FlightAware Approximate
Fri 10:32:00 PM -14.6074 -66.3940 342° North  Level FlightAware Approximate
Fri 10:33:00 PM -14.4916 -66.4327 342° North  Level FlightAware Approximate
Fri 10:34:00 PM -14.3758 -66.4713 342° North  Level FlightAware Approximate
Fri 10:35:00 PM -14.2600 -66.5099 342° North  Level FlightAware Approximate
Fri 10:36:00 PM -14.1442 -66.5485 342° North  Level FlightAware Approximate
Fri 10:37:00 PM -14.0283 -66.5871 342° North  Level FlightAware Approximate
Fri 10:38:00 PM -13.9125 -66.6256 342° North  Level FlightAware Approximate
Fri 10:39:00 PM -13.7967 -66.6640 342° North  Level FlightAware Approximate
Fri 10:40:00 PM -13.6808 -66.7025 342° North  Level FlightAware Approximate
Fri 10:41:00 PM -13.5650 -66.7409 342° North  Level FlightAware Approximate
Fri 10:42:00 PM -13.4491 -66.7792 342° North  Level FlightAware Approximate
Fri 10:43:00 PM -13.3333 -66.8175 342° North  Level FlightAware Approximate
Fri 10:44:00 PM -13.2174 -66.8558 342° North  Level FlightAware Approximate
Fri 10:45:00 PM -13.1015 -66.8941 342° North  Level FlightAware Approximate
Fri 10:46:00 PM -12.9857 -66.9323 342° North  Level FlightAware Approximate
Fri 10:47:00 PM -12.8698 -66.9704 342° North  Level FlightAware Approximate
Fri 10:48:00 PM -12.7539 -67.0086 342° North  Level FlightAware Approximate
Fri 10:49:00 PM -12.6380 -67.0467 342° North  Level FlightAware Approximate
Fri 10:50:00 PM -12.5221 -67.0847 342° North  Level FlightAware Approximate
Fri 10:51:00 PM -12.4062 -67.1228 342° North  Level FlightAware Approximate
Fri 10:52:00 PM -12.2903 -67.1608 342° North  Level FlightAware Approximate
Fri 10:53:00 PM -12.1744 -67.1987 342° North  Level FlightAware Approximate
Fri 10:54:00 PM -12.0585 -67.2367 342° North  Level FlightAware Approximate
Fri 10:55:00 PM -11.9425 -67.2746 342° North  Level FlightAware Approximate
Fri 10:56:00 PM -11.8266 -67.3124 342° North  Level FlightAware Approximate
Fri 10:57:00 PM -11.7107 -67.3503 342° North  Level FlightAware Approximate
Fri 10:58:00 PM -11.5947 -67.3881 342° North  Level FlightAware Approximate
Fri 10:59:00 PM -11.4788 -67.4258 342° North  Level FlightAware Approximate
Fri 11:00:00 PM -11.3629 -67.4636 342° North  Level FlightAware Approximate
Fri 11:01:00 PM -11.2469 -67.5013 342° North  Level FlightAware Approximate
Fri 11:02:00 PM -11.1309 -67.5390 342° North  Level FlightAware Approximate
Fri 11:03:00 PM -11.0150 -67.5766 342° North  Level FlightAware Approximate
Fri 11:04:00 PM -10.8990 -67.6143 342° North  Level FlightAware Approximate
Fri 11:05:00 PM -10.7830 -67.6518 342° North  Level FlightAware Approximate
Fri 11:06:00 PM -10.6671 -67.6894 342° North  Level FlightAware Approximate
Fri 11:07:00 PM -10.5511 -67.7269 342° North  Level FlightAware Approximate
Fri 11:08:00 PM -10.4351 -67.7644 342° North  Level FlightAware Approximate
Fri 11:09:00 PM -10.3191 -67.8019 342° North  Level FlightAware Approximate
Fri 11:10:00 PM -10.2031 -67.8394 342° North  Level FlightAware Approximate
Fri 11:11:00 PM -10.0871 -67.8768 342° North  Level FlightAware Approximate
Fri 11:12:00 PM -9.9711 -67.9142 342° North  Level FlightAware Approximate
Fri 11:13:00 PM -9.8551 -67.9516 342° North  Level FlightAware Approximate
Fri 11:14:00 PM -9.7391 -67.9889 342° North  Level FlightAware Approximate
Fri 11:15:00 PM -9.6231 -68.0262 342° North  Level FlightAware Approximate
Fri 11:16:00 PM -9.5070 -68.0635 342° North  Level FlightAware Approximate
Fri 11:17:00 PM -9.3910 -68.1008 342° North  Level FlightAware Approximate
Fri 11:18:00 PM -9.2750 -68.1380 342° North  Level FlightAware Approximate
Fri 11:19:00 PM -9.1590 -68.1752 342° North  Level FlightAware Approximate
Fri 11:20:00 PM -9.0429 -68.2124 342° North  Level FlightAware Approximate
Fri 11:21:00 PM -8.9269 -68.2496 342° North  Level FlightAware Approximate
Fri 11:22:00 PM -8.8109 -68.2867 342° North  Level FlightAware Approximate
Fri 11:23:00 PM -8.6948 -68.3239 342° North  Level FlightAware Approximate
Fri 11:24:00 PM -8.5788 -68.3610 342° North  Level FlightAware Approximate
Fri 11:25:00 PM -8.4627 -68.3980 342° North  Level FlightAware Approximate
Fri 11:26:00 PM -8.3467 -68.4351 342° North  Level FlightAware Approximate
Fri 11:27:00 PM -8.2306 -68.4721 342° North  Level FlightAware Approximate
Fri 11:28:00 PM -8.1145 -68.5091 342° North  Level FlightAware Approximate
Fri 11:29:00 PM -7.9985 -68.5461 342° North  Level FlightAware Approximate
Fri 11:30:00 PM -7.8824 -68.5831 342° North  Level FlightAware Approximate
Fri 11:31:00 PM -7.7663 -68.6200 342° North  Level FlightAware Approximate
Fri 11:32:00 PM -7.6502 -68.6570 343° North  Level FlightAware Approximate
Fri 11:33:00 PM -7.5342 -68.6939 343° North  Level FlightAware Approximate
Fri 11:34:00 PM -7.4181 -68.7308 343° North  Level FlightAware Approximate
Fri 11:35:00 PM -7.3020 -68.7676 343° North  Level FlightAware Approximate
Fri 11:36:00 PM -7.1859 -68.8045 343° North  Level FlightAware Approximate
Fri 11:37:00 PM -7.0698 -68.8413 343° North  Level FlightAware Approximate
Fri 11:38:00 PM -6.9537 -68.8781 343° North  Level FlightAware Approximate
Fri 11:39:00 PM -6.8376 -68.9149 343° North  Level FlightAware Approximate
Fri 11:40:00 PM -6.7215 -68.9517 343° North  Level FlightAware Approximate
Fri 11:41:00 PM -6.6054 -68.9884 343° North  Level FlightAware Approximate
Fri 11:42:00 PM -6.4893 -69.0252 343° North  Level FlightAware Approximate
Fri 11:43:00 PM -6.3732 -69.0619 343° North  Level FlightAware Approximate
Fri 11:44:00 PM -6.2571 -69.0986 343° North  Level FlightAware Approximate
Fri 11:45:00 PM -6.1410 -69.1353 343° North  Level FlightAware Approximate
Fri 11:46:00 PM -6.0249 -69.1720 343° North  Level FlightAware Approximate
Fri 11:47:00 PM -5.9087 -69.2086 343° North  Level FlightAware Approximate
Fri 11:48:00 PM -5.7926 -69.2453 343° North  Level FlightAware Approximate
Fri 11:49:00 PM -5.6765 -69.2819 343° North  Level FlightAware Approximate
Fri 11:50:00 PM -5.5604 -69.3185 343° North  Level FlightAware Approximate
Fri 11:51:00 PM -5.4442 -69.3551 343° North  Level FlightAware Approximate
Fri 11:52:00 PM -5.3281 -69.3917 343° North  Level FlightAware Approximate
Fri 11:53:00 PM -5.2120 -69.4283 343° North  Level FlightAware Approximate
Fri 11:54:00 PM -5.0958 -69.4648 343° North  Level FlightAware Approximate
Fri 11:55:00 PM -4.9797 -69.5014 343° North  Level FlightAware Approximate
Fri 11:56:00 PM -4.8636 -69.5379 343° North  Level FlightAware Approximate
Fri 11:57:00 PM -4.7474 -69.5744 343° North  Level FlightAware Approximate
Fri 11:58:00 PM -4.6313 -69.6109 343° North  Level FlightAware Approximate
Fri 11:59:00 PM -4.5152 -69.6474 343° North  Level FlightAware Approximate
Sat 12:00:00 AM -4.3990 -69.6839 343° North  Level FlightAware Approximate
Sat 12:01:00 AM -4.2828 -69.7204 343° North  Level FlightAware Approximate
Sat 12:02:00 AM -4.1667 -69.7568 343° North  Level FlightAware Approximate
Sat 12:03:00 AM -4.0505 -69.7933 343° North  Level FlightAware Approximate
Sat 12:04:00 AM -3.9344 -69.8297 343° North  Level FlightAware Approximate
Sat 12:05:00 AM -3.8182 -69.8661 343° North  Level FlightAware Approximate
Sat 12:06:00 AM -3.7021 -69.9026 343° North  Level FlightAware Approximate
Sat 12:07:00 AM -3.5859 -69.9390 343° North  Level FlightAware Approximate
Sat 12:08:00 AM -3.4698 -69.9754 343° North  Level FlightAware Approximate
Sat 12:09:00 AM -3.3536 -70.0118 343° North  Level FlightAware Approximate
Sat 12:10:00 AM -3.2374 -70.0481 343° North  Level FlightAware Approximate
Sat 12:11:00 AM -3.1213 -70.0845 343° North  Level FlightAware Approximate
Sat 12:12:00 AM -3.0051 -70.1209 343° North  Level FlightAware Approximate
Sat 12:13:00 AM -2.8890 -70.1572 343° North  Level FlightAware Approximate
Sat 12:14:00 AM -2.7728 -70.1936 343° North  Level FlightAware Approximate
Sat 12:15:00 AM -2.6566 -70.2299 343° North  Level FlightAware Approximate
Sat 12:16:00 AM -2.5405 -70.2663 343° North  Level FlightAware Approximate
Sat 12:17:00 AM -2.4243 -70.3026 343° North  Level FlightAware Approximate
Sat 12:18:00 AM -2.3081 -70.3389 343° North  Level FlightAware Approximate
Sat 12:19:00 AM -2.1919 -70.3752 343° North  Level FlightAware Approximate
Sat 12:20:00 AM -2.0758 -70.4116 343° North  Level FlightAware Approximate
Sat 12:21:00 AM -1.9596 -70.4479 343° North  Level FlightAware Approximate
Sat 12:22:00 AM -1.8434 -70.4842 343° North  Level FlightAware Approximate
Sat 12:23:00 AM -1.7273 -70.5205 343° North  Level FlightAware Approximate
Sat 12:24:00 AM -1.6111 -70.5567 343° North  Level FlightAware Approximate
Sat 12:25:00 AM -1.4949 -70.5930 343° North  Level FlightAware Approximate
Sat 12:26:00 AM -1.3787 -70.6293 343° North  Level FlightAware Approximate
Sat 12:27:00 AM -1.2625 -70.6656 343° North  Level FlightAware Approximate
Sat 12:28:00 AM -1.1464 -70.7019 343° North  Level FlightAware Approximate
Sat 12:29:00 AM -1.0302 -70.7382 343° North  Level FlightAware Approximate
Sat 12:30:00 AM -0.9140 -70.7744 343° North  Level FlightAware Approximate
Sat 12:31:00 AM -0.7978 -70.8107 343° North  Level FlightAware Approximate
Sat 12:32:00 AM -0.6816 -70.8470 343° North  Level FlightAware Approximate
Sat 12:33:00 AM -0.5655 -70.8832 343° North  Level FlightAware Approximate
Sat 12:34:00 AM -0.4493 -70.9195 343° North  Level FlightAware Approximate
Sat 12:35:00 AM -0.3331 -70.9557 343° North  Level FlightAware Approximate
Sat 12:36:00 AM -0.2169 -70.9920 343° North  Level FlightAware Approximate
Sat 12:37:00 AM -0.1007 -71.0283 343° North  Level FlightAware Approximate
Sat 12:38:00 AM 0.0154 -71.0645 343° North  Level FlightAware Approximate
Sat 12:39:00 AM 0.1316 -71.1008 343° North  Level FlightAware Approximate
Sat 12:40:00 AM 0.2478 -71.1370 343° North  Level FlightAware Approximate
Sat 12:41:00 AM 0.3640 -71.1733 343° North  Level FlightAware Approximate
Sat 12:42:00 AM 0.4802 -71.2096 343° North  Level FlightAware Approximate
Sat 12:43:00 AM 0.5963 -71.2458 343° North  Level FlightAware Approximate
Sat 12:44:00 AM 0.7125 -71.2821 343° North  Level FlightAware Approximate
Sat 12:45:00 AM 0.8287 -71.3184 343° North  Level FlightAware Approximate
Sat 12:46:00 AM 0.9449 -71.3546 343° North  Level FlightAware Approximate
Sat 12:47:00 AM 1.0611 -71.3909 343° North  Level FlightAware Approximate
Sat 12:48:00 AM 1.1772 -71.4272 343° North  Level FlightAware Approximate
Sat 12:49:00 AM 1.2934 -71.4635 343° North  Level FlightAware Approximate
Sat 12:50:00 AM 1.4096 -71.4997 343° North  Level FlightAware Approximate
Sat 12:51:00 AM 1.5258 -71.5360 343° North  Level FlightAware Approximate
Sat 12:52:00 AM 1.6420 -71.5723 343° North  Level FlightAware Approximate
Sat 12:53:00 AM 1.7581 -71.6086 343° North  Level FlightAware Approximate
Sat 12:54:00 AM 1.8743 -71.6449 343° North  Level FlightAware Approximate
Sat 12:55:00 AM 1.9905 -71.6812 343° North  Level FlightAware Approximate
Sat 12:56:00 AM 2.1067 -71.7175 343° North  Level FlightAware Approximate
Sat 12:57:00 AM 2.2228 -71.7538 343° North  Level FlightAware Approximate
Sat 12:58:00 AM 2.3390 -71.7902 343° North  Level FlightAware Approximate
Sat 12:59:00 AM 2.4552 -71.8265 343° North  Level FlightAware Approximate
Sat 01:00:00 AM 2.5713 -71.8628 343° North  Level FlightAware Approximate
Sat 01:01:00 AM 2.6875 -71.8991 343° North  Level FlightAware Approximate
Sat 01:02:00 AM 2.8037 -71.9355 343° North  Level FlightAware Approximate
Sat 01:03:00 AM 2.9198 -71.9718 343° North  Level FlightAware Approximate
Sat 01:04:00 AM 3.0360 -72.0082 343° North  Level FlightAware Approximate
Sat 01:05:00 AM 3.1522 -72.0446 343° North  Level FlightAware Approximate
Sat 01:06:00 AM 3.2683 -72.0809 343° North  Level FlightAware Approximate
Sat 01:07:00 AM 3.3845 -72.1173 343° North  Level FlightAware Approximate
Sat 01:08:00 AM 3.5006 -72.1537 343° North  Level FlightAware Approximate
Sat 01:09:00 AM 3.6168 -72.1901 343° North  Level FlightAware Approximate
Sat 01:10:00 AM 3.7330 -72.2265 343° North  Level FlightAware Approximate
Sat 01:11:00 AM 3.8491 -72.2629 343° North  Level FlightAware Approximate
Sat 01:12:00 AM 3.9653 -72.2994 343° North  Level FlightAware Approximate
Sat 01:13:00 AM 4.0814 -72.3358 343° North  Level FlightAware Approximate
Sat 01:14:00 AM 4.1976 -72.3723 343° North  Level FlightAware Approximate
Sat 01:15:00 AM 4.3137 -72.4087 343° North  Level FlightAware Approximate
Sat 01:16:00 AM 4.4299 -72.4452 343° North  Level FlightAware Approximate
Sat 01:17:00 AM 4.5460 -72.4817 343° North  Level FlightAware Approximate
Sat 01:18:00 AM 4.6622 -72.5182 343° North  Level FlightAware Approximate
Sat 01:19:00 AM 4.7783 -72.5547 343° North  Level FlightAware Approximate
Sat 01:20:00 AM 4.8944 -72.5912 343° North  Level FlightAware Approximate
Sat 01:21:00 AM 5.0106 -72.6277 343° North  Level FlightAware Approximate
Sat 01:22:00 AM 5.1267 -72.6643 343° North  Level FlightAware Approximate
Sat 01:23:00 AM 5.2428 -72.7009 343° North  Level FlightAware Approximate
Sat 01:24:00 AM 5.3590 -72.7374 343° North  Level FlightAware Approximate
Sat 01:25:00 AM 5.4751 -72.7740 343° North  Level FlightAware Approximate
Sat 01:26:00 AM 5.5912 -72.8106 343° North  Level FlightAware Approximate
Sat 01:27:00 AM 5.7074 -72.8472 343° North  Level FlightAware Approximate
Sat 01:28:00 AM 5.8235 -72.8839 343° North  Level FlightAware Approximate
Sat 01:29:00 AM 5.9396 -72.9205 343° North  Level FlightAware Approximate
Sat 01:30:00 AM 6.0557 -72.9572 343° North  Level FlightAware Approximate
Sat 01:31:00 AM 6.1718 -72.9939 343° North  Level FlightAware Approximate
Sat 01:32:00 AM 6.2880 -73.0305 343° North  Level FlightAware Approximate
Sat 01:33:00 AM 6.4041 -73.0673 343° North  Level FlightAware Approximate
Sat 01:34:00 AM 6.5202 -73.1040 343° North  Level FlightAware Approximate
Sat 01:35:00 AM 6.6363 -73.1407 343° North  Level FlightAware Approximate
Sat 01:36:00 AM 6.7524 -73.1775 343° North  Level FlightAware Approximate
Sat 01:37:00 AM 6.8685 -73.2143 343° North  Level FlightAware Approximate
Sat 01:38:00 AM 6.9846 -73.2511 343° North  Level FlightAware Approximate
Sat 01:39:00 AM 7.1007 -73.2879 343° North  Level FlightAware Approximate
Sat 01:40:00 AM 7.2168 -73.3247 343° North  Level FlightAware Approximate
Sat 01:41:00 AM 7.3328 -73.3615 343° North  Level FlightAware Approximate
Sat 01:42:00 AM 7.4489 -73.3984 343° North  Level FlightAware Approximate
Sat 01:43:00 AM 7.5650 -73.4353 343° North  Level FlightAware Approximate
Sat 01:44:00 AM 7.6811 -73.4722 343° North  Level FlightAware Approximate
Sat 01:45:00 AM 7.7972 -73.5091 343° North  Level FlightAware Approximate
Sat 01:46:00 AM 7.9132 -73.5461 342° North  Level FlightAware Approximate
Sat 01:47:00 AM 8.0293 -73.5831 342° North  Level FlightAware Approximate
Sat 01:48:00 AM 8.1454 -73.6201 342° North  Level FlightAware Approximate
Sat 01:49:00 AM 8.2614 -73.6571 342° North  Level FlightAware Approximate
Sat 01:50:00 AM 8.3775 -73.6941 342° North  Level FlightAware Approximate
Sat 01:51:00 AM 8.4936 -73.7312 342° North  Level FlightAware Approximate
Sat 01:52:00 AM 8.6096 -73.7683 342° North  Level FlightAware Approximate
Sat 01:53:00 AM 8.7256 -73.8054 342° North  Level FlightAware Approximate
Sat 01:54:00 AM 8.8417 -73.8425 342° North  Level FlightAware Approximate
Sat 01:55:00 AM 8.9577 -73.8796 342° North  Level FlightAware Approximate
Sat 01:56:00 AM 9.0738 -73.9168 342° North  Level FlightAware Approximate
Sat 01:57:00 AM 9.1898 -73.9540 342° North  Level FlightAware Approximate
Sat 01:58:00 AM 9.3058 -73.9912 342° North  Level FlightAware Approximate
Sat 01:59:00 AM 9.4219 -74.0285 342° North  Level FlightAware Approximate
Sat 02:00:00 AM 9.5379 -74.0658 342° North  Level FlightAware Approximate
Sat 02:01:00 AM 9.6539 -74.1031 342° North  Level FlightAware Approximate
Sat 02:02:00 AM 9.7699 -74.1404 342° North  Level FlightAware Approximate
Sat 02:03:00 AM 9.8859 -74.1777 342° North  Level FlightAware Approximate
Sat 02:04:00 AM 10.0019 -74.2151 342° North  Level FlightAware Approximate
Sat 02:05:00 AM 10.1179 -74.2525 342° North  Level FlightAware Approximate
Sat 02:06:00 AM 10.2339 -74.2899 342° North  Level FlightAware Approximate
Sat 02:07:00 AM 10.3499 -74.3275 342° North  Level FlightAware Approximate
Sat 02:08:00 AM 10.4658 -74.3652 342° North  Level FlightAware Approximate
Sat 02:09:00 AM 10.5817 -74.4029 342° North  Level FlightAware Approximate
Sat 02:10:00 AM 10.6976 -74.4407 342° North  Level FlightAware Approximate
Sat 02:11:00 AM 10.8135 -74.4784 342° North  Level FlightAware Approximate
Sat 02:12:00 AM 10.9294 -74.5162 342° North  Level FlightAware Approximate
Sat 02:13:00 AM 11.0453 -74.5541 342° North  Level FlightAware Approximate
Sat 02:14:00 AM 11.1612 -74.5919 342° North  Level FlightAware Approximate
Sat 02:15:00 AM 11.2771 -74.6299 342° North  Level FlightAware Approximate
Sat 02:16:00 AM 11.3930 -74.6678 342° North  Level FlightAware Approximate
Sat 02:17:00 AM 11.5089 -74.7057 342° North  Level FlightAware Approximate
Sat 02:18:00 AM 11.6247 -74.7437 342° North  Level FlightAware Approximate
Sat 02:19:00 AM 11.7406 -74.7818 342° North  Level FlightAware Approximate
Sat 02:20:00 AM 11.8565 -74.8198 342° North  Level FlightAware Approximate
Sat 02:21:00 AM 11.9723 -74.8579 342° North  Level FlightAware Approximate
Sat 02:22:00 AM 12.0882 -74.8960 342° North  Level FlightAware Approximate
Sat 02:23:00 AM 12.2040 -74.9342 342° North  Level FlightAware Approximate
Sat 02:24:00 AM 12.3199 -74.9724 342° North  Level FlightAware Approximate
Sat 02:25:00 AM 12.4357 -75.0106 342° North  Level FlightAware Approximate
Sat 02:26:00 AM 12.5515 -75.0489 342° North  Level FlightAware Approximate
Sat 02:27:00 AM 12.6674 -75.0872 342° North  Level FlightAware Approximate
Sat 02:28:00 AM 12.7832 -75.1255 342° North  Level FlightAware Approximate
Sat 02:29:00 AM 12.8990 -75.1638 342° North  Level FlightAware Approximate
Sat 02:30:00 AM 13.0148 -75.2022 342° North  Level FlightAware Approximate
Sat 02:31:00 AM 13.1306 -75.2407 342° North  Level FlightAware Approximate
Sat 02:32:00 AM 13.2464 -75.2792 342° North  Level FlightAware Approximate
Sat 02:33:00 AM 13.3622 -75.3177 342° North  Level FlightAware Approximate
Sat 02:34:00 AM 13.4780 -75.3562 342° North  Level FlightAware Approximate
Sat 02:35:00 AM 13.5938 -75.3948 342° North  Level FlightAware Approximate
Sat 02:36:00 AM 13.7096 -75.4334 342° North  Level FlightAware Approximate
Sat 02:37:00 AM 13.8253 -75.4721 342° North  Level FlightAware Approximate
Sat 02:38:00 AM 13.9411 -75.5108 342° North  Level FlightAware Approximate
Sat 02:39:00 AM 14.0569 -75.5495 342° North  Level FlightAware Approximate
Sat 02:40:00 AM 14.1726 -75.5883 342° North  Level FlightAware Approximate
Sat 02:41:00 AM 14.2884 -75.6271 342° North  Level FlightAware Approximate
Sat 02:42:00 AM 14.4041 -75.6659 342° North  Level FlightAware Approximate
Sat 02:43:00 AM 14.5198 -75.7048 342° North  Level FlightAware Approximate
Sat 02:44:00 AM 14.6356 -75.7438 342° North  Level FlightAware Approximate
Sat 02:45:00 AM 14.7513 -75.7828 342° North  Level FlightAware Approximate
Sat 02:46:00 AM 14.8670 -75.8218 342° North  Level FlightAware Approximate
Sat 02:47:00 AM 14.9827 -75.8608 342° North  Level FlightAware Approximate
Sat 02:48:00 AM 15.0985 -75.8996 342° North  Level FlightAware Approximate
Sat 02:49:00 AM 15.2143 -75.9384 342° North  Level FlightAware Approximate
Sat 02:50:00 AM 15.3301 -75.9773 342° North  Level FlightAware Approximate
Sat 02:51:00 AM 15.4459 -76.0162 342° North  Level FlightAware Approximate
Sat 02:52:00 AM 15.5617 -76.0551 342° North  Level FlightAware Approximate
Sat 02:53:00 AM 15.6775 -76.0941 342° North  Level FlightAware Approximate
Sat 02:54:00 AM 15.7932 -76.1331 342° North  Level FlightAware Approximate
Sat 02:55:00 AM 15.9090 -76.1721 342° North  Level FlightAware Approximate
Sat 02:56:00 AM 16.0247 -76.2113 342° North  Level FlightAware Approximate
Sat 02:57:00 AM 16.1405 -76.2504 342° North  Level FlightAware Approximate
Sat 02:58:00 AM 16.2562 -76.2896 342° North  Level FlightAware Approximate
Sat 02:59:00 AM 16.3720 -76.3289 342° North  Level FlightAware Approximate
Sat 03:00:00 AM 16.4877 -76.3681 342° North  Level FlightAware Approximate
Sat 03:01:00 AM 16.6035 -76.4072 342° North  Level FlightAware Approximate
Sat 03:02:00 AM 16.7193 -76.4463 342° North  Level FlightAware Approximate
Sat 03:03:00 AM 16.8351 -76.4854 342° North  Level FlightAware Approximate
Sat 03:04:00 AM 16.9509 -76.5246 342° North  Level FlightAware Approximate
Sat 03:05:00 AM 17.0667 -76.5638 342° North  Level FlightAware Approximate
Sat 03:06:00 AM 17.1824 -76.6031 342° North  Level FlightAware Approximate
Sat 03:07:00 AM 17.2982 -76.6424 342° North  Level FlightAware Approximate
Sat 03:08:00 AM 17.4140 -76.6818 342° North  Level FlightAware Approximate
Sat 03:09:00 AM 17.5297 -76.7212 342° North  Level FlightAware Approximate
Sat 03:10:00 AM 17.6455 -76.7607 342° North  Level FlightAware Approximate
Sat 03:11:00 AM 17.7612 -76.8002 342° North  Level FlightAware Approximate
Sat 03:12:00 AM 17.8769 -76.8398 342° North  Level FlightAware Approximate
Sat 03:13:00 AM 17.9927 -76.8794 342° North  Level FlightAware Approximate
Sat 03:14:00 AM 18.1084 -76.9191 342° North  Level FlightAware Approximate
Sat 03:15:00 AM 18.2241 -76.9588 342° North  Level FlightAware Approximate
Sat 03:16:00 AM 18.3398 -76.9986 342° North  Level FlightAware Approximate
Sat 03:17:00 AM 18.4555 -77.0385 342° North  Level FlightAware Approximate
Sat 03:18:00 AM 18.5711 -77.0784 342° North  Level FlightAware Approximate
Sat 03:19:00 AM 18.6868 -77.1183 342° North  Level FlightAware Approximate
Sat 03:20:00 AM 18.8025 -77.1583 342° North  Level FlightAware Approximate
Sat 03:21:00 AM 18.9181 -77.1984 342° North  Level FlightAware Approximate
Sat 03:22:00 AM 19.0338 -77.2385 342° North  Level FlightAware Approximate
Sat 03:23:00 AM 19.1494 -77.2786 342° North  Level FlightAware Approximate
Sat 03:24:00 AM 19.2650 -77.3189 342° North  Level FlightAware Approximate
Sat 03:25:00 AM 19.3807 -77.3592 342° North  Level FlightAware Approximate
Sat 03:26:00 AM 19.4962 -77.3998 341° North  Level FlightAware Approximate
Sat 03:27:00 AM 19.6115 -77.4409 341° North  Level FlightAware Approximate
Sat 03:28:00 AM 19.7269 -77.4821 341° North  Level FlightAware Approximate
Sat 03:29:00 AM 19.8423 -77.5233 341° North  Level FlightAware Approximate
Sat 03:30:00 AM 19.9576 -77.5646 341° North  Level FlightAware Approximate
Sat 03:31:00 AM 20.0730 -77.6060 341° North  Level FlightAware Approximate
Sat 03:32:00 AM 20.1883 -77.6474 341° North  Level FlightAware Approximate
Sat 03:33:00 AM 20.3036 -77.6889 341° North  Level FlightAware Approximate
Sat 03:34:00 AM 20.4189 -77.7304 341° North  Level FlightAware Approximate
Sat 03:35:00 AM 20.5342 -77.7720 341° North  Level FlightAware Approximate
Sat 03:36:00 AM 20.6495 -77.8137 341° North  Level FlightAware Approximate
Sat 03:37:00 AM 20.7648 -77.8555 341° North  Level FlightAware Approximate
Sat 03:38:00 AM 20.8801 -77.8972 341° North  Level FlightAware Approximate
Sat 03:39:00 AM 20.9953 -77.9391 341° North  Level FlightAware Approximate
Sat 03:40:00 AM 21.1106 -77.9810 341° North  Level FlightAware Approximate
Sat 03:41:00 AM 21.2258 -78.0230 341° North  Level FlightAware Approximate
Sat 03:42:00 AM 21.3410 -78.0651 341° North  Level FlightAware Approximate
Sat 03:43:00 AM 21.4562 -78.1072 341° North  Level FlightAware Approximate
Sat 03:44:00 AM 21.5714 -78.1494 341° North  Level FlightAware Approximate
Sat 03:45:00 AM 21.6866 -78.1917 341° North  Level FlightAware Approximate
Sat 03:46:00 AM 21.8018 -78.2340 341° North  Level FlightAware Approximate
Sat 03:47:00 AM 21.9170 -78.2761 341° North  Level FlightAware Approximate
Sat 03:48:00 AM 22.0323 -78.3183 341° North  Level FlightAware Approximate
Sat 03:49:00 AM 22.1475 -78.3606 341° North  Level FlightAware Approximate
Sat 03:50:00 AM 22.2628 -78.4029 341° North  Level FlightAware Approximate
Sat 03:51:00 AM 22.3780 -78.4453 341° North  Level FlightAware Approximate
Sat 03:52:00 AM 22.4932 -78.4878 341° North  Level FlightAware Approximate
Sat 03:52:03 AM 23.2261 -78.1725 341° North 467 537 38,000  Level Miami Center
Sat 03:53:00 AM 22.6084 -78.5303 341° North  Level FlightAware Approximate
Sat 03:53:03 AM 23.3489 -78.2236 339° North 453 521 38,000  Level Miami Center
Sat 03:54:00 AM 22.7235 -78.5729 341° North  Level FlightAware Approximate
Sat 03:54:05 AM 23.4656 -78.2633 343° North 451 519 38,000  Level Miami Center
Sat 03:55:00 AM 22.8387 -78.6156 341° North  Level FlightAware Approximate
Sat 03:55:04 AM 23.5822 -78.3031 343° North 456 525 38,000  Level Miami Center
Sat 03:56:00 AM 22.9539 -78.6583 341° North  Level FlightAware Approximate
Sat 03:56:06 AM 23.7008 -78.3475 341° North 445 512 38,000  Level Miami Center
Sat 03:57:00 AM 23.0690 -78.7012 341° North  Level FlightAware Approximate
Sat 03:57:04 AM 23.8175 -78.3919 341° North 445 512 38,000  Level Miami Center
Sat 03:58:04 AM 23.9319 -78.4344 341° North 439 505 38,000  Level Miami Center
Sat 03:59:03 AM 24.0403 -78.4789 339° North 428 493 38,000  Level Miami Center
Sat 04:00:05 AM 24.1503 -78.5372 334° Northwest 428 493 38,000  Level Miami Center
Sat 04:01:06 AM 24.2625 -78.5867 338° Northwest 428 493 38,000  Level Miami Center
Sat 04:02:06 AM 24.3706 -78.6383 336° Northwest 428 493 38,000  Level Miami Center
Sat 04:03:03 AM 24.4725 -78.6878 336° Northwest 420 483 38,000  Level Miami Center
Sat 04:04:05 AM 24.5847 -78.7397 337° Northwest 420 483 38,000  Level Miami Center
Sat 04:05:04 AM 24.6947 -78.7917 337° Northwest 420 483 38,000  Level Miami Center
Sat 04:06:06 AM 24.8153 -78.8483 337° Northwest 420 483 38,000  Level Miami Center
Sat 04:07:03 AM 24.9253 -78.9006 337° Northwest 414 476 38,000  Level Miami Center
Sat 04:08:03 AM 25.0331 -78.9506 337° Northwest 414 476 38,000  Level Miami Center
Sat 04:09:03 AM 25.1433 -78.9983 339° North 419 482 38,000  Level Miami Center
Sat 04:10:06 AM 25.2531 -79.0531 336° Northwest 419 482 38,000  Level Miami Center
Sat 04:11:03 AM 25.3611 -79.1033 337° Northwest 419 482 38,000  Level Miami Center
Sat 04:12:03 AM 25.4689 -79.1558 336° Northwest 419 482 38,000  Level Miami Center
Sat 04:13:03 AM 25.5789 -79.2064 337° Northwest 419 482 38,000  Level Miami Center
Sat 04:14:03 AM 25.6867 -79.2614 335° Northwest 414 476 38,000  Level Miami Center
Sat 04:15:03 AM 25.7903 -79.3119 336° Northwest 407 468 38,000  Level Miami Center
Sat 04:16:05 AM 25.8836 -79.3578 336° Northwest 407 468 38,000  Level Miami Center
Sat 04:17:05 AM 26.0017 -79.4158 336° Northwest 415 478 38,000  Level Miami Center
Sat 04:18:04 AM 26.1072 -79.4644 338° Northwest 415 478 38,000  Level Miami Center
Sat 04:19:05 AM 26.2128 -79.5175 336° Northwest 415 478 38,000  Level Miami Center
Sat 04:20:06 AM 26.3142 -79.5661 337° Northwest 408 470 38,000  Level Miami Center
Sat 04:21:03 AM 26.4178 -79.6172 336° Northwest 403 464 38,000  Level Miami Center
Sat 04:22:06 AM 26.5211 -79.6683 336° Northwest 403 464 38,000  Level Miami Center
Sat 04:23:03 AM 26.6267 -79.7219 336° Northwest 403 464 38,000  Level Miami Center
Sat 04:24:03 AM 26.7303 -79.7733 336° Northwest 403 464 38,000  Level Miami Center
Sat 04:25:03 AM 26.8317 -79.8203 338° Northwest 393 452 38,000  Level Miami Center
Sat 04:26:05 AM 26.9267 -79.8669 336° Northwest 399 459 38,000  Level Miami Center
Sat 04:27:04 AM 27.0319 -79.9208 335° Northwest 399 459 38,000  Level Miami Center
Sat 04:28:03 AM 27.1478 -79.9822 335° Northwest 404 465 38,000  Level Miami Center
Sat 04:29:03 AM 27.2508 -80.0364 335° Northwest 404 465 38,000  Level Miami Center
Sat 04:30:05 AM 27.3564 -80.0861 337° Northwest 404 465 38,000  Level Miami Center
Sat 04:31:06 AM 27.4617 -80.1383 336° Northwest 404 465 38,000  Level Miami Center
Sat 04:32:03 AM 27.5647 -80.1881 337° Northwest 404 465 38,000  Level Miami Center
Sat 04:33:05 AM 27.6597 -80.2353 336° Northwest 410 472 38,000  Level Miami Center
Sat 04:34:06 AM 27.7608 -80.2875 335° Northwest 410 472 38,000  Level Miami Center
Sat 04:35:05 AM 27.8661 -80.3331 339° North 405 466 38,000  Level Miami Center
Sat 04:36:03 AM 27.9794 -80.3928 335° Northwest 405 466 38,000  Level Miami Center
Sat 04:37:04 AM 28.0806 -80.4456 335° Northwest 405 466 38,000  Level Miami Center
Sat 04:38:05 AM 28.1814 -80.4981 335° Northwest 398 458 38,000  Level Miami Center
Sat 04:39:52 AM 28.3672 -80.5925 336° Northwest 391 450 38,000  Level Jacksonville Center
Sat 04:40:52 AM 28.4642 -80.6400 337° Northwest 404 465 38,000  Level Jacksonville Center
Sat 04:41:52 AM 28.5653 -80.6944 335° Northwest 404 465 38,000  Level Jacksonville Center
Sat 04:42:52 AM 28.6683 -80.7464 336° Northwest 404 465 38,000  Level Jacksonville Center
Sat 04:43:52 AM 28.7714 -80.8011 335° Northwest 404 465 38,000  Level Jacksonville Center
Sat 04:44:52 AM 28.8747 -80.8536 336° Northwest 404 465 38,000  Level Jacksonville Center
Sat 04:45:52 AM 28.9778 -80.9083 335° Northwest 404 465 38,000  Level Jacksonville Center
Sat 04:46:52 AM 29.0828 -80.9586 337° Northwest 404 465 38,000  Level Jacksonville Center
Sat 04:47:52 AM 29.1881 -81.0136 335° Northwest 404 465 38,000  Level Jacksonville Center
Sat 04:48:52 AM 29.2889 -81.0664 335° Northwest 404 465 38,000  Level Jacksonville Center
Sat 04:49:52 AM 29.3919 -81.1192 336° Northwest 404 465 38,000  Level Jacksonville Center
Sat 04:50:52 AM 29.4950 -81.1769 334° Northwest 404 465 38,000  Level Jacksonville Center
Sat 04:51:52 AM 29.5981 -81.2325 335° Northwest 404 465 38,000  Level Jacksonville Center
Sat 04:52:52 AM 29.7011 -81.2858 336° Northwest 404 465 38,000  Level Jacksonville Center
Sat 04:53:52 AM 29.8061 -81.3392 336° Northwest 404 465 38,000  Level Jacksonville Center
Sat 04:54:52 AM 29.9089 -81.3903 337° Northwest 404 465 38,000  Level Jacksonville Center
Sat 04:55:52 AM 30.0119 -81.4461 335° Northwest 404 465 38,000  Level Jacksonville Center
Sat 04:56:52 AM 30.1169 -81.5022 335° Northwest 404 465 38,000  Level Jacksonville Center
Sat 04:57:52 AM 30.2178 -81.5536 336° Northwest 404 465 38,000  Level Jacksonville Center
Sat 04:58:52 AM 30.3247 -81.6075 336° Northwest 404 465 38,000  Level Jacksonville Center
Sat 04:59:52 AM 30.4297 -81.6614 336° Northwest 404 465 38,000  Level Jacksonville Center
Sat 05:00:52 AM 30.5325 -81.7181 335° Northwest 403 464 38,000  Level Jacksonville Center
Sat 05:01:52 AM 30.6481 -81.7819 335° Northwest 403 464 38,000  Level Jacksonville Center
Sat 05:02:52 AM 30.7528 -81.8386 335° Northwest 403 464 38,000  Level Jacksonville Center
Sat 05:03:52 AM 30.8556 -81.8931 336° Northwest 403 464 38,000  Level Jacksonville Center
Sat 05:04:52 AM 30.9603 -81.9525 334° Northwest 403 464 38,000  Level Jacksonville Center
Sat 05:05:52 AM 31.0631 -82.0072 335° Northwest 403 464 38,000  Level Jacksonville Center
Sat 05:06:52 AM 31.1658 -82.0647 334° Northwest 403 464 38,000  Level Jacksonville Center
Sat 05:07:52 AM 31.2706 -82.1197 336° Northwest 403 464 38,000  Level Jacksonville Center
Sat 05:08:52 AM 31.3753 -82.1794 334° Northwest 403 464 38,000  Level Jacksonville Center
Sat 05:09:52 AM 31.4800 -82.2347 336° Northwest 403 464 38,000  Level Jacksonville Center
Sat 05:12:09 AM 31.7039 -82.3547 335° Northwest 404 465 38,000  Level Atlanta Center
Sat 05:13:09 AM 31.8089 -82.4114 335° Northwest 404 465 38,000  Level Atlanta Center
Sat 05:14:09 AM 31.9139 -82.4706 334° Northwest 404 465 38,000  Level Atlanta Center
Sat 05:15:09 AM 32.0089 -82.5497 325° Northwest 409 471 38,000  Level Atlanta Center
Sat 05:16:09 AM 32.0914 -82.6389 318° Northwest 409 471 38,000 -600 Level Atlanta Center
Sat 05:17:09 AM 32.1800 -82.7283 320° Northwest 409 471 36,800 -1,550 Descending Atlanta Center
Sat 05:18:09 AM 32.2664 -82.8181 319° Northwest 415 478 34,900 -2,300 Descending Atlanta Center
Sat 05:19:09 AM 32.3614 -82.9150 319° Northwest 426 490 32,200 -2,700 Descending Atlanta Center
Sat 05:20:09 AM 32.4561 -83.0122 319° Northwest 437 503 29,500 -2,450 Descending Atlanta Center
Sat 05:21:09 AM 32.5508 -83.1122 318° Northwest 443 510 27,300 -2,250 Descending Atlanta Center
Sat 05:22:09 AM 32.6433 -83.2100 318° Northwest 443 510 25,000 -2,300 Descending Atlanta Center
Sat 05:23:09 AM 32.7294 -83.3006 319° Northwest 437 503 22,700 -2,300 Descending Atlanta Center
Sat 05:24:09 AM 32.8136 -83.3864 319° Northwest 415 478 20,400 -2,050 Descending Atlanta Center
Sat 05:25:09 AM 32.8975 -83.4722 319° Northwest 404 465 18,600 -1,800 Descending Atlanta Center
Sat 05:26:09 AM 32.9731 -83.5536 318° Northwest 389 448 16,800 -1,700 Descending Atlanta Center
Sat 05:27:09 AM 33.0525 -83.6422 317° Northwest 377 434 15,200 -1,350 Descending Atlanta Center
Sat 05:28:09 AM 33.1383 -83.7336 318° Northwest 382 440 14,100 -600 Descending Atlanta Center
Sat 05:29:09 AM 33.2181 -83.8203 318° Northwest 382 440 14,000 -600 Descending Atlanta Center
Sat 05:30:09 AM 33.2722 -83.9244 302° West 375 432 12,900 -1,450 Descending Atlanta Center
Sat 05:31:09 AM 33.3225 -84.0339 299° West 375 432 11,100 -900 Descending Atlanta Center
Sat 05:32:09 AM 33.3747 -84.1433 300° West 375 432 11,100 -100 Level Atlanta Center
Sat 05:33:09 AM 33.4100 -84.2453 293° West 351 404 10,900 -1,000 Descending Atlanta Center
Sat 05:34:09 AM 33.4350 -84.3275 290° West 314 361 9,100 -2,100 Descending Atlanta Center
Sat 05:35:09 AM 33.4619 -84.4122 291° West 285 328 6,700 -1,824 Descending Atlanta Center
Sat 05:37:33 AM 33.5500 -84.5667 304° West 250 288 2,900 -1,088 Descending Atlanta TRACON
Sat 05:38:33 AM 33.6167 -84.5833 348° North 220 253 3,000 -300 Climbing Atlanta TRACON
Sat 05:39:33 AM 33.6333 -84.5333 68° East 185 213 2,300 -789 Descending Atlanta TRACON
Sat 05:40:27 AM 33.6333 -84.4833 90° East 162 186 1,500 -889 Descending Atlanta TRACON

Login

Don't have an account? Register now (free) for customized features, flight alerts, and more!